Data for 02/10/2009

Time Sea-Level Adjusted Pressure Absolute Pressure Temperature Relative Humidity Dew Point   
(mb) (inHg) (mb) (inHg) (C) (F) (%) (C) (F)
00:05 1006 29.71 835 24.66 -1.8 28.8 63 -8 17.7
00:10 1006 29.71 835 24.66 -1.8 28.7 63 -8 17.5
00:15 1006 29.71 835 24.66 -1.8 28.7 63 -8 17.6
00:20 1006 29.71 835 24.66 -1.9 28.6 63 -8 17.5
00:25 1006 29.71 836 24.69 -1.9 28.6 63 -8 17.5
00:30 1006 29.71 836 24.69 -1.9 28.5 64 -7.9 17.7
00:35 1006 29.71 836 24.69 -2 28.5 63 -8 17.5
00:40 1006 29.71 836 24.69 -1.9 28.5 63 -8 17.6
00:45 1006 29.71 836 24.69 -1.9 28.6 63 -8 17.5
00:50 1007 29.74 836 24.69 -1.9 28.5 62 -8.2 17.2
00:55 1007 29.74 836 24.69 -1.9 28.6 62 -8.1 17.3
01:00 1007 29.74 836 24.69 -1.9 28.7 63 -8.1 17.5
01:05 1007 29.74 836 24.69 -1.8 28.7 63 -8.1 17.5
01:10 1007 29.74 836 24.69 -1.8 28.7 61 -8.4 16.9
01:15 1007 29.74 836 24.69 -1.9 28.7 62 -8.2 17.2
01:20 1007 29.74 836 24.69 -1.9 28.6 63 -8.1 17.4
01:25 1007 29.74 836 24.69 -1.9 28.5 64 -7.9 17.7
01:30 1007 29.74 836 24.69 -2 28.5 62 -8.2 17.2
01:35 1007 29.74 836 24.69 -2 28.5 63 -8.2 17.3
01:40 1007 29.74 836 24.69 -1.9 28.5 62 -8.4 16.9
01:45 1007 29.74 836 24.69 -2 28.5 62 -8.3 17
01:50 1007 29.74 836 24.69 -2 28.4 63 -8.1 17.4
01:55 1007 29.74 836 24.69 -2.1 28.2 63 -8.2 17.3
02:00 1007 29.74 836 24.69 -2.1 28.3 63 -8.3 17.1
02:05 1007 29.74 836 24.69 -2.1 28.2 63 -8.2 17.2
02:10 1007 29.74 836 24.69 -2.1 28.2 62 -8.5 16.8
02:15 1007 29.74 836 24.69 -2.1 28.2 62 -8.5 16.7
02:20 1007 29.74 836 24.69 -2.1 28.2 63 -8.2 17.2
02:25 1007 29.74 836 24.69 -2.2 28 65 -8 17.6
02:30 1007 29.74 836 24.69 -2.4 27.8 65 -8.1 17.5
02:35 1007 29.74 836 24.69 -2.3 27.8 64 -8.3 17.1
02:40 1007 29.74 836 24.69 -2.3 27.9 63 -8.4 16.9
02:45 1007 29.74 836 24.69 -2.3 28 64 -8.2 17.2
02:50 1007 29.74 836 24.69 -2.2 28 64 -8.1 17.4
02:55 1007 29.74 836 24.69 -2.3 27.9 65 -8 17.6
03:00 1007 29.74 836 24.69 -2.3 27.8 65 -8 17.5
03:05 1007 29.74 836 24.69 -2.3 27.8 64 -8.2 17.2
03:10 1007 29.74 836 24.69 -2.3 27.8 62 -8.6 16.6
03:15 1007 29.74 836 24.69 -2.3 27.8 61 -8.8 16.2
03:20 1007 29.74 836 24.69 -2.4 27.7 61 -8.9 16
03:25 1007 29.74 836 24.69 -2.5 27.5 61 -9 15.7
03:30 1007 29.74 836 24.69 -2.6 27.3 61 -9.2 15.4
03:35 1007 29.74 836 24.69 -2.7 27.2 62 -9 15.7
03:40 1007 29.74 837 24.72 -2.7 27.1 62 -9 15.8
03:45 1007 29.74 837 24.72 -2.8 27 62 -9 15.8
03:50 1007 29.74 837 24.72 -2.8 26.9 64 -8.8 16.2
03:55 1007 29.74 837 24.72 -3 26.7 64 -8.8 16.1
04:00 1007 29.74 837 24.72 -3 26.6 64 -8.9 16
04:05 1008 29.77 837 24.72 -3 26.6 64 -8.9 15.9
04:10 1008 29.77 837 24.72 -3 26.6 64 -8.8 16.1
04:15 1008 29.77 837 24.72 -3 26.6 64 -9 15.9
04:20 1008 29.77 837 24.72 -3.1 26.5 64 -8.9 15.9
04:25 1008 29.77 837 24.72 -3.1 26.4 65 -8.8 16.2
04:30 1008 29.77 837 24.72 -3.2 26.3 65 -8.8 16.1
04:35 1008 29.77 837 24.72 -3.1 26.3 65 -8.9 16
04:40 1008 29.77 837 24.72 -3.2 26.3 65 -8.8 16.2
04:45 1008 29.77 837 24.72 -3.2 26.3 65 -8.9 16
04:50 1008 29.77 837 24.72 -3.2 26.3 66 -8.7 16.3
04:55 1008 29.77 837 24.72 -3.2 26.2 66 -8.7 16.3
05:00 1008 29.77 837 24.72 -3.2 26.2 65 -8.8 16.1
05:05 1008 29.77 837 24.72 -3.2 26.2 64 -9.1 15.7
05:10 1008 29.77 837 24.72 -3.3 26.1 64 -9 15.7
05:15 1008 29.77 837 24.72 -3.3 26.1 65 -9 15.9
05:20 1008 29.77 837 24.72 -3.3 26 65 -9.1 15.7
05:25 1008 29.77 837 24.72 -3.3 26 65 -9.1 15.6
05:30 1008 29.77 837 24.72 -3.3 26 64 -9.1 15.6
05:35 1008 29.77 837 24.72 -3.4 25.9 65 -9.1 15.6
05:40 1008 29.77 837 24.72 -3.5 25.8 65 -9.1 15.6
05:45 1008 29.77 837 24.72 -3.6 25.6 65 -9.2 15.4
05:50 1008 29.77 838 24.75 -3.6 25.5 65 -9.3 15.3
05:55 1008 29.77 838 24.75 -3.7 25.4 65 -9.4 15.1
06:00 1008 29.77 838 24.75 -3.8 25.2 64 -9.6 14.7
06:05 1008 29.77 838 24.75 -3.9 25 65 -9.6 14.7
06:10 1009 29.8 838 24.75 -4.1 24.7 65 -9.7 14.5
06:15 1009 29.8 838 24.75 -4.1 24.6 64 -9.9 14.2
06:20 1009 29.8 838 24.75 -4.2 24.5 64 -9.9 14.1
06:25 1009 29.8 838 24.75 -4.2 24.5 64 -10 13.9
06:30 1009 29.8 838 24.75 -4.2 24.4 65 -9.9 14.1
06:35 1009 29.8 838 24.75 -4.3 24.2 65 -10 13.9
06:40 1009 29.8 838 24.75 -4.5 23.8 67 -9.7 14.5
06:45 1009 29.8 838 24.75 -5.2 22.6 69 -10 14
06:50 1009 29.8 838 24.75 -5.2 22.6 69 -10.1 13.8
06:55 1009 29.8 838 24.75 -5.1 22.8 69 -10 14
07:00 1009 29.8 838 24.75 -5.1 22.8 69 -10 14
07:05 1009 29.8 838 24.75 -5 23 68 -10 14
07:10 1009 29.8 838 24.75 -4.9 23.2 69 -9.8 14.4
07:15 1009 29.8 838 24.75 -4.8 23.3 68 -9.8 14.4
07:20 1009 29.8 838 24.75 -4.8 23.4 68 -9.8 14.4
07:25 1009 29.8 838 24.75 -4.7 23.5 68 -9.8 14.4
07:30 1009 29.8 839 24.78 -4.7 23.6 67 -9.9 14.1
07:35 1009 29.8 839 24.78 -4.6 23.7 66 -9.9 14.1
07:40 1009 29.8 839 24.78 -4.6 23.8 67 -9.7 14.5
07:45 1010 29.83 839 24.78 -4.6 23.7 67 -9.8 14.4
07:50 1010 29.83 839 24.78 -4.6 23.7 67 -9.7 14.5
07:55 1010 29.83 839 24.78 -4.6 23.8 68 -9.6 14.7
08:00 1010 29.83 839 24.78 -4.5 23.8 68 -9.5 14.8
08:05 1010 29.83 839 24.78 -4.6 23.7 69 -9.5 14.9
08:10 1010 29.83 839 24.78 -4.5 23.9 68 -9.5 14.8
08:15 1010 29.83 839 24.78 -4.3 24.2 67 -9.6 14.6
08:20 1010 29.83 839 24.78 -4.2 24.4 66 -9.7 14.5
08:25 1010 29.83 839 24.78 -4.2 24.5 66 -9.5 14.8
08:30 1010 29.83 839 24.78 -4.2 24.4 67 -9.4 15
08:35 1010 29.83 839 24.78 -4.2 24.4 67 -9.5 14.8
08:40 1010 29.83 840 24.81 -4.1 24.6 66 -9.5 14.9
08:45 1010 29.83 840 24.81 -4 24.9 61 -10.4 13.3
08:50 1010 29.83 840 24.81 -4 24.8 59 -10.9 12.3
08:55 1011 29.85 840 24.81 -4.2 24.5 57 -11.5 11.3
09:00 1011 29.85 840 24.81 -4.2 24.4 58 -11.4 11.5
09:05 1011 29.85 840 24.81 -4.2 24.4 58 -11.4 11.4
09:10 1011 29.85 840 24.81 -4.3 24.2 58 -11.4 11.5
09:15 1011 29.85 840 24.81 -4.4 24.1 58 -11.4 11.4
09:20 1011 29.85 840 24.81 -4.4 24 57 -11.8 10.7
09:25 1011 29.85 840 24.81 -4.4 24.2 56 -11.9 10.6
09:30 1011 29.85 840 24.81 -4.3 24.2 55 -12 10.5
09:35 1011 29.85 840 24.81 -4.2 24.5 55 -11.9 10.6
09:40 1011 29.85 840 24.81 -4.1 24.6 56 -11.8 10.8
09:45 1011 29.85 840 24.81 -4.1 24.6 55 -11.9 10.6
09:50 1011 29.85 840 24.81 -4 24.8 56 -11.6 11.1
09:55 1011 29.85 840 24.81 -3.9 25 57 -11.3 11.7
10:00 1011 29.85 840 24.81 -3.8 25.2 55 -11.5 11.3
10:05 1011 29.85 840 24.81 -3.7 25.3 54 -11.9 10.6
10:10 1011 29.85 840 24.81 -3.7 25.4 53 -11.9 10.6
10:15 1011 29.85 840 24.81 -3.7 25.4 52 -12.2 10
10:20 1011 29.85 840 24.81 -3.6 25.5 51 -12.2 10
10:25 1011 29.85 840 24.81 -3.5 25.6 52 -12 10.4
10:30 1011 29.85 841 24.83 -3.4 25.9 52 -12 10.5
10:35 1011 29.85 840 24.81 -3.4 25.9 52 -11.8 10.8
10:40 1011 29.85 841 24.83 -3.3 26.1 52 -11.8 10.7
10:45 1011 29.85 841 24.83 -3.3 26.1 52 -11.7 10.9
10:50 1011 29.85 841 24.83 -3.2 26.3 51 -11.9 10.5
10:55 1011 29.85 841 24.83 -3.1 26.4 51 -11.9 10.6
11:00 1011 29.85 841 24.83 -2.9 26.8 50 -11.8 10.8
11:05 1012 29.88 841 24.83 -2.3 27.8 48 -12 10.4
11:10 1012 29.88 841 24.83 -2.2 28.1 47 -12 10.4
11:15 1012 29.88 841 24.83 -2.1 28.2 47 -11.9 10.6
11:20 1012 29.88 841 24.83 -2.1 28.2 48 -11.8 10.7
11:25 1012 29.88 841 24.83 -2.2 28 47 -12.1 10.2
11:30 1012 29.88 841 24.83 -2.1 28.3 47 -12 10.5
11:35 1012 29.88 841 24.83 -2.2 28 47 -12.1 10.2
11:40 1012 29.88 841 24.83 -2.3 27.9 48 -12 10.4
11:45 1011 29.85 841 24.83 -1.8 28.8 47 -11.7 10.9
11:50 1011 29.85 841 24.83 -1.6 29.1 45 -12 10.5
11:55 1011 29.85 841 24.83 -1.1 30.1 45 -11.6 11.2
12:00 1011 29.85 841 24.83 -0.8 30.5 45 -11.4 11.5
12:05 1011 29.85 840 24.81 -1.1 30.1 45 -11.6 11.2
12:10 1011 29.85 840 24.81 -1.4 29.5 47 -11.4 11.6
12:15 1011 29.85 840 24.81 -1.1 29.9 47 -11.2 11.8
12:20 1011 29.85 840 24.81 -1.2 29.8 47 -11.1 12
12:25 1011 29.85 840 24.81 -1.2 29.8 45 -11.6 11.1
12:30 1011 29.85 840 24.81 -2 28.4 50 -11 12.2
12:35 1011 29.85 840 24.81 -2.6 27.4 52 -11.2 11.9
12:40 1011 29.85 840 24.81 -2.3 27.9 51 -11.1 12
12:45 1011 29.85 840 24.81 -2.3 27.9 52 -10.9 12.3
12:50 1011 29.85 840 24.81 -2.2 28.1 51 -10.9 12.4
12:55 1011 29.85 840 24.81 -2.1 28.1 52 -10.8 12.5
13:00 1011 29.85 840 24.81 -2.3 27.9 52 -10.9 12.3
13:05 1011 29.85 840 24.81 -2.1 28.2 49 -11.4 11.4
13:10 1011 29.85 840 24.81 -1.5 29.3 46 -11.6 11.2
13:15 1011 29.85 840 24.81 -0.7 30.8 44 -11.5 11.3
13:20 1011 29.85 840 24.81 -0.2 31.7 43 -11.4 11.5
13:25 1011 29.85 840 24.81 0.2 32.4 39 -12.1 10.3
13:30 1011 29.85 840 24.81 0.1 32.1 44 -10.8 12.6
13:35 1011 29.85 840 24.81 -0.8 30.6 41 -12.4 9.7
13:40 1011 29.85 840 24.81 -0.2 31.6 41 -11.9 10.6
13:45 1011 29.85 840 24.81 0.1 32.3 39 -12.1 10.2
13:50 1011 29.85 840 24.81 -0.3 31.5 40 -12.5 9.6
13:55 1011 29.85 840 24.81 -0.7 30.8 43 -11.8 10.7
14:00 1011 29.85 840 24.81 -0.5 31.1 41 -12.3 9.9
14:05 1011 29.85 840 24.81 0.2 32.4 37 -12.8 9
14:10 1011 29.85 840 24.81 0.5 32.9 37 -12.7 9.1
14:15 1011 29.85 840 24.81 0.7 33.2 38 -12 10.4
14:20 1011 29.85 840 24.81 -0.1 31.9 38 -12.8 9
14:25 1011 29.85 840 24.81 -0.2 31.7 39 -12.5 9.5
14:30 1011 29.85 840 24.81 0.3 32.5 38 -12.6 9.3
14:35 1011 29.85 840 24.81 -0.4 31.2 40 -12.5 9.4
14:40 1011 29.85 840 24.81 -0.2 31.7 36 -13.4 7.9
14:45 1011 29.85 840 24.81 0.1 32.2 39 -12.4 9.7
14:50 1011 29.85 840 24.81 0 32.1 38 -12.8 9
14:55 1011 29.85 840 24.81 0.2 32.4 38 -12.5 9.5
15:00 1011 29.85 840 24.81 0.3 32.6 37 -12.7 9.1
15:05 1011 29.85 840 24.81 -0.1 31.8 41 -11.8 10.7
15:10 1011 29.85 840 24.81 -0.3 31.5 45 -10.7 12.7
15:15 1011 29.85 840 24.81 -0.6 31 44 -11.4 11.5
15:20 1011 29.85 840 24.81 -0.3 31.5 44 -11.2 11.8
15:25 1011 29.85 840 24.81 -0.2 31.7 42 -11.6 11.1
15:30 1011 29.85 840 24.81 -0.6 30.9 43 -11.6 11.1
15:35 1011 29.85 840 24.81 -0.5 31 42 -11.9 10.5
15:40 1011 29.85 840 24.81 -0.7 30.8 43 -11.9 10.6
15:45 1011 29.85 840 24.81 -0.4 31.4 40 -12.4 9.6
15:50 1011 29.85 840 24.81 -0.1 31.8 40 -12.3 9.9
15:55 1011 29.85 840 24.81 -0.5 31.1 42 -12 10.5
16:00 1011 29.85 840 24.81 -0.8 30.5 41 -12.5 9.5
16:05 1011 29.85 840 24.81 -0.7 30.7 42 -12.1 10.2
16:10 1011 29.85 840 24.81 -0.8 30.6 41 -12.4 9.7
16:15 1011 29.85 840 24.81 -0.8 30.6 42 -12.3 9.9
16:20 1011 29.85 840 24.81 -0.8 30.6 42 -12.2 10.1
16:25 1011 29.85 840 24.81 -0.9 30.5 43 -12.1 10.3
16:30 1011 29.85 840 24.81 -0.9 30.5 42 -12.1 10.2
16:35 1011 29.85 840 24.81 -0.8 30.5 43 -11.8 10.7
16:40 1011 29.85 840 24.81 -1.5 29.2 44 -12.4 9.7
16:45 1011 29.85 840 24.81 -1.1 30.1 43 -12 10.3
16:50 1011 29.85 840 24.81 -1 30.2 44 -11.7 10.9
16:55 1011 29.85 840 24.81 -1.4 29.5 45 -12 10.4
17:00 1011 29.85 840 24.81 -1.7 29 46 -11.7 10.9
17:05 1011 29.85 840 24.81 -2 28.3 48 -11.6 11.1
17:10 1011 29.85 840 24.81 -2.2 28 49 -11.5 11.2
17:15 1011 29.85 840 24.81 -2.4 27.7 49 -11.7 11
17:20 1011 29.85 840 24.81 -2.3 27.9 49 -11.7 10.9
17:25 1011 29.85 840 24.81 -2 28.5 49 -11.3 11.6
17:30 1011 29.85 840 24.81 -2.3 27.8 51 -11.1 12
17:35 1011 29.85 840 24.81 -2.5 27.6 52 -11.1 12.1
17:40 1011 29.85 840 24.81 -2.5 27.5 54 -10.6 12.9
17:45 1011 29.85 840 24.81 -2.5 27.5 55 -10.3 13.4
17:50 1011 29.85 840 24.81 -2.6 27.3 55 -10.4 13.3
17:55 1011 29.85 840 24.81 -2.7 27.1 56 -10.3 13.4
18:00 1011 29.85 840 24.81 -2.7 27.2 56 -10.4 13.3
18:05 1011 29.85 840 24.81 -2.8 27 57 -10.1 13.9
18:10 1011 29.85 840 24.81 -3.2 26.3 58 -10.2 13.6
18:15 1011 29.85 840 24.81 -3.4 25.9 58 -10.5 13.2
18:20 1011 29.85 840 24.81 -3.5 25.7 59 -10.4 13.3
18:25 1011 29.85 840 24.81 -3.5 25.6 59 -10.4 13.2
18:30 1011 29.85 840 24.81 -3.7 25.4 59 -10.7 12.8
18:35 1011 29.85 840 24.81 -3.7 25.3 59 -10.6 12.9
18:40 1011 29.85 840 24.81 -3.7 25.3 59 -10.7 12.7
18:45 1011 29.85 840 24.81 -3.8 25.1 61 -10.4 13.3
18:50 1011 29.85 840 24.81 -3.9 25 61 -10.3 13.4
18:55 1011 29.85 840 24.81 -4.1 24.7 62 -10.3 13.5
19:00 1011 29.85 840 24.81 -4.2 24.5 62 -10.3 13.4
19:05 1011 29.85 841 24.83 -4.3 24.2 62 -10.6 13
19:10 1011 29.85 841 24.83 -4.3 24.2 62 -10.7 12.8
19:15 1011 29.85 841 24.83 -4.3 24.3 62 -10.5 13.1
19:20 1011 29.85 841 24.83 -4.5 23.9 62 -10.7 12.8
19:25 1011 29.85 841 24.83 -4.6 23.7 62 -10.9 12.4
19:30 1011 29.85 841 24.83 -4.4 24 62 -10.7 12.7
19:35 1012 29.88 841 24.83 -4.4 24.1 63 -10.3 13.4
19:40 1012 29.88 841 24.83 -4.5 23.9 65 -10.1 13.7
19:45 1012 29.88 841 24.83 -4.6 23.7 66 -10.1 13.9
19:50 1012 29.88 841 24.83 -4.5 23.8 65 -10.1 13.8
19:55 1012 29.88 841 24.83 -4.4 24.2 65 -10 14.1
20:00 1012 29.88 841 24.83 -4.3 24.2 66 -9.8 14.3
20:05 1012 29.88 841 24.83 -4.2 24.4 65 -9.9 14.3
20:10 1012 29.88 841 24.83 -4.4 24.2 66 -9.7 14.5
20:15 1012 29.88 841 24.83 -4.5 24 68 -9.6 14.7
20:20 1012 29.88 841 24.83 -4.6 23.8 68 -9.6 14.8
20:25 1012 29.88 841 24.83 -4.6 23.6 69 -9.5 15
20:30 1012 29.88 841 24.83 -4.7 23.6 69 -9.4 15
20:35 1012 29.88 841 24.83 -4.6 23.7 69 -9.5 14.9
20:40 1012 29.88 841 24.83 -4.6 23.8 70 -9.3 15.2
20:45 1012 29.88 841 24.83 -4.5 24 70 -9.2 15.5
20:50 1012 29.88 841 24.83 -4.5 23.9 72 -8.8 16.1
20:55 1012 29.88 841 24.83 -4.6 23.8 73 -8.8 16.2
21:00 1012 29.88 841 24.83 -4.7 23.6 73 -8.8 16.2
21:05 1012 29.88 841 24.83 -4.7 23.5 72 -9 15.9
21:10 1012 29.88 841 24.83 -4.7 23.6 73 -8.7 16.3
21:15 1012 29.88 841 24.83 -4.7 23.5 73 -8.8 16.1
21:20 1012 29.88 841 24.83 -4.7 23.5 73 -8.9 16.1
21:25 1012 29.88 841 24.83 -4.8 23.4 73 -8.9 16
21:30 1012 29.88 841 24.83 -4.8 23.4 73 -8.8 16.1
21:35 1012 29.88 841 24.83 -4.7 23.5 73 -8.8 16.2
21:40 1012 29.88 841 24.83 -4.7 23.5 73 -8.8 16.2
21:45 1012 29.88 841 24.83 -4.8 23.4 74 -8.7 16.4
21:50 1012 29.88 841 24.83 -4.8 23.3 75 -8.7 16.4
21:55 1012 29.88 841 24.83 -4.8 23.3 75 -8.6 16.5
22:00 1012 29.88 841 24.83 -4.8 23.4 75 -8.7 16.4
22:05 1012 29.88 841 24.83 -4.7 23.5 74 -8.8 16.2
22:10 1012 29.88 841 24.83 -4.8 23.4 74 -8.7 16.3
22:15 1012 29.88 841 24.83 -4.9 23.2 75 -8.7 16.3
22:20 1012 29.88 841 24.83 -4.9 23.2 75 -8.7 16.3
22:25 1012 29.88 841 24.83 -4.9 23.2 76 -8.6 16.6
22:30 1012 29.88 841 24.83 -4.9 23.2 76 -8.5 16.7
22:35 1012 29.88 841 24.83 -4.9 23.2 76 -8.6 16.6
22:40 1012 29.88 841 24.83 -5 23 76 -8.6 16.6
22:45 1012 29.88 841 24.83 -5.1 22.8 74 -9 15.7
22:50 1012 29.88 841 24.83 -5.3 22.4 75 -9 15.8
22:55 1012 29.88 841 24.83 -5.4 22.2 76 -9.1 15.7
23:00 1012 29.88 841 24.83 -5.5 22 76 -9.1 15.6
23:05 1012 29.88 841 24.83 -5.7 21.8 77 -9 15.8
23:10 1012 29.88 841 24.83 -5.7 21.8 77 -9 15.7
23:15 1012 29.88 841 24.83 -5.6 22 77 -9 15.7
23:20 1012 29.88 841 24.83 -5.7 21.8 76 -9.2 15.5
23:25 1012 29.88 841 24.83 -5.7 21.8 76 -9.2 15.5
23:30 1012 29.88 841 24.83 -5.8 21.6 76 -9.3 15.3
23:35 1012 29.88 841 24.83 -5.9 21.3 77 -9.3 15.2
23:40 1012 29.88 841 24.83 -6 21.2 77 -9.5 14.9
23:45 1012 29.88 841 24.83 -6 21.1 77 -9.5 14.9
23:50 1012 29.88 841 24.83 -6.1 21.1 75 -9.8 14.4
23:55 1012 29.88 841 24.83 -6 21.1 74 -10 14
24:00 1012 29.88 841 24.83 -6.1 21 73 -10.2 13.6